Data for 11/13/2007

Time Sea-Level Adjusted Pressure Absolute Pressure Temperature Relative Humidity Dew Point   
(mb) (inHg) (mb) (inHg) (C) (F) (%) (C) (F)
00:05 1005 29.68 834 24.63 12.6 54.8 33 -3.2 26.2
00:10 1005 29.68 834 24.63 12.6 54.6 33 -3.4 26
00:15 1005 29.68 834 24.63 12.9 55.1 32 -3.3 26
00:20 1005 29.68 834 24.63 12.9 55.1 33 -2.9 26.7
00:25 1004 29.65 834 24.63 12.8 55 34 -2.7 27.1
00:30 1004 29.65 834 24.63 12.8 55.1 33 -3 26.5
00:35 1004 29.65 834 24.63 12.7 54.8 34 -2.8 26.9
00:40 1004 29.65 834 24.63 12.5 54.6 34 -2.8 27
00:45 1005 29.68 834 24.63 12.5 54.6 34 -2.9 26.9
00:50 1005 29.68 834 24.63 12.7 54.9 34 -2.7 27.1
00:55 1005 29.68 834 24.63 12.6 54.6 34 -2.7 27.2
01:00 1005 29.68 834 24.63 12.7 54.9 33 -3 26.6
01:05 1005 29.68 834 24.63 13 55.3 34 -2.3 27.9
01:10 1005 29.68 834 24.63 12.7 54.8 35 -2.5 27.6
01:15 1005 29.68 834 24.63 12.8 55 35 -2.4 27.7
01:20 1005 29.68 834 24.63 12.5 54.5 35 -2.5 27.5
01:25 1005 29.68 834 24.63 12.7 54.9 35 -2.3 27.9
01:30 1005 29.68 834 24.63 12.4 54.4 36 -2.1 28.1
01:35 1005 29.68 834 24.63 13.2 55.7 35 -1.8 28.8
01:40 1005 29.68 835 24.66 13.1 55.6 35 -1.8 28.7
01:45 1005 29.68 835 24.66 13.1 55.5 35 -1.8 28.7
01:50 1005 29.68 835 24.66 13.2 55.8 35 -1.7 28.9
01:55 1005 29.68 835 24.66 13.3 55.9 35 -1.7 29
02:00 1005 29.68 835 24.66 13.2 55.7 36 -1.7 29
02:05 1005 29.68 835 24.66 13.2 55.7 36 -1.7 29
02:10 1005 29.68 835 24.66 13.2 55.7 36 -1.6 29.2
02:15 1006 29.71 835 24.66 13.1 55.6 36 -1.5 29.3
02:20 1006 29.71 835 24.66 13 55.3 37 -1.4 29.4
02:25 1006 29.71 835 24.66 12.9 55.3 38 -1 30.2
02:30 1006 29.71 835 24.66 12.8 55.1 38 -1.1 30
02:35 1006 29.71 835 24.66 12.9 55.2 36 -1.7 28.9
02:40 1006 29.71 835 24.66 12.9 55.2 38 -1.2 29.9
02:45 1006 29.71 835 24.66 12.8 55 38 -1.2 29.9
02:50 1006 29.71 835 24.66 12.6 54.7 38 -1.2 29.8
02:55 1006 29.71 835 24.66 12.7 54.8 38 -1.4 29.6
03:00 1006 29.71 835 24.66 12.8 55.1 37 -1.6 29.1
03:05 1006 29.71 835 24.66 12.9 55.2 37 -1.5 29.3
03:10 1006 29.71 835 24.66 12.6 54.7 38 -1.3 29.7
03:15 1006 29.71 835 24.66 12.5 54.4 37 -1.7 28.9
03:20 1006 29.71 835 24.66 12.6 54.6 38 -1.5 29.3
03:25 1006 29.71 835 24.66 12.3 54.1 39 -1.3 29.7
03:30 1006 29.71 835 24.66 12.1 53.9 39 -1.4 29.4
03:35 1006 29.71 835 24.66 12.3 54.2 38 -1.4 29.5
03:40 1006 29.71 835 24.66 12.4 54.4 38 -1.3 29.7
03:45 1006 29.71 835 24.66 12.4 54.3 39 -1.2 29.8
03:50 1006 29.71 835 24.66 12.4 54.4 36 -2.2 28
03:55 1006 29.71 835 24.66 12.3 54.2 39 -1.3 29.7
04:00 1006 29.71 835 24.66 11.8 53.3 40 -1.4 29.5
04:05 1006 29.71 835 24.66 11.1 52 40 -2 28.5
04:10 1006 29.71 835 24.66 11.4 52.4 39 -2.2 28
04:15 1006 29.71 836 24.69 11.7 53 39 -1.8 28.8
04:20 1008 29.77 837 24.72 11.5 52.6 48 0.9 33.7
04:25 1008 29.77 837 24.72 7.6 45.7 67 1.9 35.3
04:30 1008 29.77 838 24.75 5 41.1 76 1.1 34.1
04:35 1009 29.8 838 24.75 3.7 38.7 83 1.1 33.9
04:40 1009 29.8 839 24.78 2.7 36.8 88 0.9 33.6
04:45 1010 29.83 839 24.78 1.9 35.4 91 0.6 33.1
04:50 1010 29.83 839 24.78 1.4 34.5 93 0.4 32.8
04:55 1010 29.83 839 24.78 1.3 34.3 94 0.4 32.8
05:00 1010 29.83 839 24.78 1.1 34 95 0.4 32.6
05:05 1011 29.85 840 24.81 0.9 33.6 96 0.2 32.4
05:10 1011 29.85 840 24.81 0.8 33.4 96 0.2 32.3
05:15 1011 29.85 841 24.83 0.6 33.1 96 0.1 32.2
05:20 1012 29.88 841 24.83 0.6 33 97 0.1 32.2
05:25 1012 29.88 841 24.83 0.5 32.9 97 0 32.1
05:30 1012 29.88 841 24.83 0.4 32.8 97 -0 32
05:35 1012 29.88 841 24.83 0.4 32.6 98 0 32
05:40 1012 29.88 842 24.86 0.5 32.8 97 0 32.1
05:45 1013 29.91 842 24.86 0.5 33 97 0.1 32.2
05:50 1013 29.91 842 24.86 0.5 32.9 97 0.1 32.1
05:55 1013 29.91 842 24.86 0.5 32.9 97 0 32.1
06:00 1013 29.91 842 24.86 0.4 32.8 97 0 32.1
06:05 1013 29.91 842 24.86 0.4 32.7 97 0 32
06:10 1013 29.91 843 24.89 0.4 32.7 97 -0 32
06:15 1014 29.94 843 24.89 0.4 32.7 98 0 32.1
06:20 1014 29.94 843 24.89 0.5 32.8 97 0.1 32.1
06:25 1014 29.94 843 24.89 0.4 32.8 97 0 32.1
06:30 1014 29.94 843 24.89 0.4 32.6 98 0 32
06:35 1014 29.94 843 24.89 0.3 32.6 97 -0.1 31.8
06:40 1014 29.94 843 24.89 0.1 32.2 98 -0.3 31.5
06:45 1014 29.94 843 24.89 0.1 32.1 98 -0.3 31.5
06:50 1014 29.94 843 24.89 0.1 32.1 98 -0.3 31.5
06:55 1014 29.94 843 24.89 0 32 98 -0.3 31.5
07:00 1014 29.94 843 24.89 0 32 98 -0.3 31.5
07:05 1014 29.94 844 24.92 0 32.1 98 -0.2 31.6
07:10 1014 29.94 844 24.92 0 32.1 98 -0.3 31.5
07:15 1015 29.97 844 24.92 0 32.1 97 -0.3 31.4
07:20 1015 29.97 844 24.92 -0.1 31.9 98 -0.4 31.3
07:25 1015 29.97 844 24.92 -0.1 31.7 97 -0.6 31
07:30 1015 29.97 844 24.92 -0.3 31.4 98 -0.7 30.8
07:35 1015 29.97 844 24.92 -0.4 31.3 98 -0.7 30.7
07:40 1015 29.97 844 24.92 -0.5 31 97 -1 30.3
07:45 1015 29.97 844 24.92 -0.7 30.7 98 -1 30.1
07:50 1015 29.97 844 24.92 -0.7 30.7 98 -1 30.2
07:55 1015 29.97 844 24.92 -0.7 30.7 98 -0.9 30.3
08:00 1015 29.97 845 24.95 -0.7 30.7 98 -1 30.3
08:05 1016 30 845 24.95 -0.8 30.6 98 -1 30.2
08:10 1016 30 845 24.95 -0.8 30.6 99 -1 30.3
08:15 1016 30 845 24.95 -0.7 30.7 99 -0.9 30.4
08:20 1016 30 845 24.95 -0.7 30.7 99 -0.9 30.4
08:25 1016 30 845 24.95 -0.7 30.7 99 -0.9 30.3
08:30 1016 30 845 24.95 -0.7 30.7 99 -0.9 30.3
08:35 1016 30 845 24.95 -0.7 30.7 99 -0.9 30.4
08:40 1016 30 845 24.95 -0.7 30.7 99 -0.9 30.4
08:45 1016 30 845 24.95 -0.7 30.7 98 -1 30.3
08:50 1016 30 845 24.95 -0.7 30.8 98 -0.9 30.3
08:55 1016 30 845 24.95 -0.7 30.8 98 -0.9 30.3
09:00 1016 30 845 24.95 -0.7 30.7 98 -1 30.2
09:05 1016 30 845 24.95 -0.7 30.7 98 -0.9 30.3
09:10 1016 30 846 24.98 -0.7 30.8 97 -1.1 30
09:15 1017 30.03 846 24.98 -0.6 30.9 95 -1.3 29.6
09:20 1017 30.03 846 24.98 -0.8 30.6 93 -1.8 28.8
09:25 1017 30.03 846 24.98 -0.8 30.5 92 -1.9 28.5
09:30 1017 30.03 847 25.01 -0.8 30.5 91 -2.1 28.3
09:35 1017 30.03 847 25.01 -0.8 30.6 87 -2.6 27.3
09:40 1017 30.03 847 25.01 -0.7 30.8 86 -2.8 27
09:45 1017 30.03 847 25.01 -0.6 30.9 82 -3.3 26.1
09:50 1017 30.03 847 25.01 -0.6 30.9 81 -3.5 25.7
09:55 1018 30.06 847 25.01 -0.6 31 79 -3.8 25.1
10:00 1018 30.06 847 25.01 -0.5 31 78 -4 24.9
10:05 1018 30.06 847 25.01 -0.5 31.1 78 -3.8 25.1
10:10 1018 30.06 847 25.01 -0.4 31.2 75 -4.3 24.3
10:15 1018 30.06 847 25.01 -0.3 31.4 75 -4.2 24.5
10:20 1018 30.06 847 25.01 -0.2 31.6 72 -4.6 23.7
10:25 1018 30.06 847 25.01 -0.2 31.7 72 -4.7 23.6
10:30 1018 30.06 847 25.01 -0.2 31.6 72 -4.7 23.5
10:35 1018 30.06 847 25.01 -0.4 31.3 72 -4.7 23.5
10:40 1018 30.06 847 25.01 -0.4 31.2 72 -4.9 23.2
10:45 1018 30.06 847 25.01 -0.4 31.2 69 -5.5 22.1
10:50 1018 30.06 847 25.01 -0.3 31.4 71 -5 23
10:55 1018 30.06 847 25.01 -0.1 31.9 71 -4.7 23.6
11:00 1018 30.06 847 25.01 0.5 32.9 69 -4.6 23.8
11:05 1018 30.06 847 25.01 1.4 34.4 66 -4.3 24.2
11:10 1018 30.06 847 25.01 1.7 35 68 -3.7 25.4
11:15 1018 30.06 848 25.04 1.4 34.5 67 -4.1 24.6
11:20 1018 30.06 848 25.04 1 33.8 66 -4.7 23.5
11:25 1018 30.06 848 25.04 0.8 33.5 66 -4.8 23.3
11:30 1018 30.06 848 25.04 1.4 34.5 66 -4.3 24.2
11:35 1018 30.06 848 25.04 1.8 35.2 66 -4 24.8
11:40 1018 30.06 848 25.04 1.8 35.2 66 -3.9 25
11:45 1018 30.06 847 25.01 1.8 35.3 64 -4.2 24.4
11:50 1018 30.06 847 25.01 2.5 36.5 61 -4.3 24.2
11:55 1018 30.06 847 25.01 2.9 37.3 60 -4.1 24.6
12:00 1018 30.06 847 25.01 3 37.4 57 -4.6 23.7
12:05 1018 30.06 847 25.01 3.2 37.7 55 -5.1 22.9
12:10 1018 30.06 848 25.04 3.5 38.3 52 -5.4 22.3
12:15 1018 30.06 848 25.04 3.4 38.2 54 -5 23
12:20 1018 30.06 848 25.04 3.4 38.2 54 -5 23.1
12:25 1018 30.06 848 25.04 3.4 38.1 56 -4.7 23.6
12:30 1019 30.09 848 25.04 3.4 38 53 -5.3 22.5
12:35 1019 30.09 848 25.04 3.2 37.8 54 -5.3 22.5
12:40 1019 30.09 848 25.04 3.4 38.1 52 -5.6 22
12:45 1019 30.09 848 25.04 3.5 38.3 53 -5.3 22.5
12:50 1019 30.09 848 25.04 3.5 38.4 48 -6.4 20.4
12:55 1019 30.09 848 25.04 3.5 38.2 49 -6.2 20.9
13:00 1019 30.09 848 25.04 3.6 38.5 49 -6.1 21
13:05 1019 30.09 848 25.04 3.8 38.8 48 -6.2 20.8
13:10 1019 30.09 848 25.04 3.9 39 47 -6.5 20.4
13:15 1019 30.09 848 25.04 3.9 39 45 -6.9 19.6
13:20 1019 30.09 848 25.04 3.8 38.8 48 -6.3 20.6
13:25 1019 30.09 848 25.04 3.7 38.7 48 -6.3 20.7
13:30 1019 30.09 848 25.04 3.8 38.8 49 -6 21.2
13:35 1019 30.09 848 25.04 3.7 38.6 48 -6.3 20.7
13:40 1019 30.09 848 25.04 3.8 38.8 47 -6.6 20.1
13:45 1019 30.09 848 25.04 3.7 38.6 48 -6.3 20.6
13:50 1019 30.09 848 25.04 3.3 38 48 -6.5 20.3
13:55 1019 30.09 848 25.04 3.2 37.7 49 -6.6 20
14:00 1019 30.09 848 25.04 3 37.5 51 -6.2 20.9
14:05 1019 30.09 848 25.04 2.9 37.3 51 -6.1 20.9
14:10 1019 30.09 848 25.04 2.9 37.2 52 -6.1 21
14:15 1019 30.09 848 25.04 2.6 36.7 51 -6.4 20.4
14:20 1019 30.09 848 25.04 2.4 36.4 53 -6.3 20.7
14:25 1019 30.09 848 25.04 2.4 36.3 53 -6.3 20.6
14:30 1019 30.09 848 25.04 2.3 36.2 55 -5.9 21.4
14:35 1019 30.09 848 25.04 2.4 36.4 51 -6.7 19.9
14:40 1019 30.09 849 25.07 2.6 36.6 51 -6.5 20.3
14:45 1019 30.09 849 25.07 2.6 36.6 53 -6.1 21
14:50 1019 30.09 849 25.07 2.5 36.5 51 -6.6 20.2
14:55 1019 30.09 849 25.07 2.9 37.3 51 -6.3 20.7
15:00 1019 30.09 849 25.07 3.4 38.1 49 -6.4 20.5
15:05 1020 30.12 849 25.07 3 37.4 52 -5.9 21.3
15:10 1020 30.12 849 25.07 2.5 36.5 55 -5.7 21.8
15:15 1020 30.12 849 25.07 2.3 36.1 54 -6.1 21.1
15:20 1020 30.12 849 25.07 2.8 37 54 -5.7 21.8
15:25 1020 30.12 849 25.07 2.9 37.3 54 -5.5 22.2
15:30 1020 30.12 849 25.07 2.4 36.4 54 -5.8 21.5
15:35 1020 30.12 849 25.07 1.8 35.2 52 -7 19.3
15:40 1020 30.12 849 25.07 1.7 35 51 -7.5 18.5
15:45 1020 30.12 849 25.07 1.7 35.1 52 -7.1 19.3
15:50 1020 30.12 849 25.07 1.3 34.3 56 -6.5 20.4
15:55 1020 30.12 849 25.07 1.2 34.2 50 -8 17.6
16:00 1020 30.12 849 25.07 1.4 34.6 46 -8.9 16
16:05 1020 30.12 849 25.07 1.7 35.1 46 -8.7 16.4
16:10 1020 30.12 849 25.07 1.7 35 48 -8.2 17.3
16:15 1020 30.12 849 25.07 1.7 35.1 50 -7.6 18.3
16:20 1020 30.12 850 25.1 1.6 34.8 53 -7.1 19.2
16:25 1020 30.12 850 25.1 1.5 34.8 53 -7.1 19.2
16:30 1020 30.12 850 25.1 1.3 34.3 53 -7.2 19
16:35 1021 30.15 850 25.1 1.1 34 54 -7.3 18.9
16:40 1021 30.15 850 25.1 1 33.7 56 -6.9 19.6
16:45 1021 30.15 850 25.1 0.6 33.1 57 -6.9 19.6
16:50 1021 30.15 850 25.1 0.2 32.4 60 -6.7 19.9
16:55 1021 30.15 850 25.1 0 32.1 60 -6.8 19.8
17:00 1021 30.15 850 25.1 -0.1 31.8 61 -6.7 19.9
17:05 1021 30.15 850 25.1 -0.1 31.8 62 -6.6 20.1
17:10 1021 30.15 851 25.13 -0.3 31.5 64 -6.3 20.6
17:15 1021 30.15 851 25.13 -0.4 31.2 63 -6.6 20.1
17:20 1021 30.15 851 25.13 -0.5 31.2 63 -6.7 19.9
17:25 1022 30.18 851 25.13 -0.6 31 60 -7.3 18.9
17:30 1021 30.15 851 25.13 -0.8 30.6 59 -7.8 18
17:35 1022 30.18 851 25.13 -0.9 30.4 59 -8 17.6
17:40 1022 30.18 851 25.13 -0.8 30.6 57 -8.2 17.3
17:45 1022 30.18 851 25.13 -0.7 30.7 56 -8.4 16.9
17:50 1022 30.18 851 25.13 -0.9 30.5 57 -8.2 17.2
17:55 1022 30.18 851 25.13 -0.9 30.4 58 -8.1 17.5
18:00 1022 30.18 851 25.13 -0.9 30.4 59 -8 17.7
18:05 1022 30.18 851 25.13 -1.1 30 60 -7.9 17.8
18:10 1022 30.18 851 25.13 -1.2 29.8 60 -8.1 17.5
18:15 1022 30.18 851 25.13 -1.2 29.9 59 -8.3 17
18:20 1022 30.18 851 25.13 -1.1 30 57 -8.7 16.4
18:25 1022 30.18 851 25.13 -0.9 30.3 56 -8.8 16.2
18:30 1022 30.18 851 25.13 -0.9 30.4 55 -8.8 16.2
18:35 1022 30.18 851 25.13 -1 30.2 55 -8.9 15.9
18:40 1022 30.18 851 25.13 -1.2 29.9 56 -8.9 16
18:45 1022 30.18 851 25.13 -1.3 29.7 56 -9 15.9
18:50 1022 30.18 851 25.13 -1.3 29.6 56 -9 15.8
18:55 1022 30.18 851 25.13 -1.4 29.5 54 -9.5 14.8
19:00 1022 30.18 851 25.13 -1.3 29.6 53 -9.6 14.7
19:05 1022 30.18 852 25.16 -1.3 29.6 54 -9.5 15
19:10 1023 30.21 852 25.16 -1.4 29.5 54 -9.5 14.9
19:15 1023 30.21 852 25.16 -1.4 29.4 55 -9.4 15.1
19:20 1023 30.21 852 25.16 -1.5 29.2 55 -9.5 14.9
19:25 1023 30.21 852 25.16 -1.6 29.1 55 -9.6 14.8
19:30 1023 30.21 852 25.16 -2 28.5 57 -9.3 15.2
19:35 1023 30.21 852 25.16 -2.6 27.3 59 -9.6 14.7
19:40 1023 30.21 852 25.16 -2.6 27.3 57 -9.9 14.2
19:45 1023 30.21 852 25.16 -2.7 27.1 58 -9.9 14.3
19:50 1023 30.21 853 25.19 -2.6 27.3 58 -9.7 14.6
19:55 1023 30.21 853 25.19 -2.2 28 56 -9.8 14.3
20:00 1024 30.24 853 25.19 -1.7 28.9 56 -9.4 15.1
20:05 1024 30.24 853 25.19 -1.4 29.4 56 -9.1 15.5
20:10 1024 30.24 853 25.19 -1.3 29.7 55 -9.1 15.6
20:15 1024 30.24 853 25.19 -1.2 29.8 56 -8.9 16
20:20 1024 30.24 853 25.19 -1.3 29.7 57 -8.9 16.1
20:25 1024 30.24 853 25.19 -1.3 29.6 57 -8.7 16.3
20:30 1024 30.24 853 25.19 -2 28.4 59 -8.9 15.9
20:35 1024 30.24 853 25.19 -3 26.6 62 -9.3 15.3
20:40 1024 30.24 853 25.19 -2.7 27.2 60 -9.4 15.2
20:45 1024 30.24 853 25.19 -2.5 27.6 61 -9 15.8
20:50 1024 30.24 854 25.22 -2.5 27.4 61 -9.2 15.5
20:55 1024 30.24 854 25.22 -2.6 27.3 61 -9.1 15.6
21:00 1024 30.24 854 25.22 -2.6 27.4 61 -9.2 15.5
21:05 1025 30.27 854 25.22 -2.5 27.4 60 -9.4 15.1
21:10 1025 30.27 854 25.22 -2.5 27.4 59 -9.4 15
21:15 1025 30.27 854 25.22 -2.6 27.3 59 -9.5 14.9
21:20 1025 30.27 854 25.22 -2.7 27.2 59 -9.6 14.6
21:25 1025 30.27 854 25.22 -2.8 27 59 -9.7 14.6
21:30 1025 30.27 854 25.22 -2.7 27.1 58 -9.8 14.3
21:35 1025 30.27 854 25.22 -2.7 27.1 59 -9.8 14.4
21:40 1025 30.27 854 25.22 -2.8 27 59 -9.7 14.6
21:45 1025 30.27 854 25.22 -3.2 26.2 59 -10.1 13.9
21:50 1025 30.27 854 25.22 -2.9 26.7 57 -10.2 13.6
21:55 1025 30.27 854 25.22 -2.6 27.4 56 -10.3 13.5
22:00 1025 30.27 854 25.22 -2.4 27.7 55 -10.3 13.5
22:05 1025 30.27 854 25.22 -2.2 28 55 -10.1 13.8
22:10 1025 30.27 854 25.22 -2.1 28.2 55 -10 13.9
22:15 1025 30.27 854 25.22 -2.1 28.2 55 -10 14
22:20 1025 30.27 854 25.22 -2.1 28.2 54 -10.2 13.7
22:25 1025 30.27 855 25.25 -2.4 27.6 59 -9.4 15
22:30 1025 30.27 855 25.25 -3.4 25.9 60 -10 14
22:35 1025 30.27 855 25.25 -3.6 25.5 59 -10.6 12.9
22:40 1025 30.27 855 25.25 -3.5 25.7 58 -10.6 12.9
22:45 1026 30.3 855 25.25 -3.5 25.6 57 -10.8 12.6
22:50 1026 30.3 855 25.25 -3.6 25.5 57 -10.9 12.4
22:55 1026 30.3 855 25.25 -3.5 25.6 57 -10.9 12.3
23:00 1026 30.3 855 25.25 -3.5 25.8 56 -11 12.1
23:05 1026 30.3 855 25.25 -3.4 25.8 56 -10.9 12.4
23:10 1026 30.3 855 25.25 -3.4 26 56 -10.9 12.4
23:15 1026 30.3 855 25.25 -3.4 25.8 57 -10.8 12.5
23:20 1026 30.3 855 25.25 -3.5 25.7 56 -11.1 12
23:25 1026 30.3 855 25.25 -3.5 25.7 56 -11.2 11.9
23:30 1026 30.3 855 25.25 -3.6 25.6 55 -11.5 11.4
23:35 1026 30.3 855 25.25 -3.6 25.5 54 -11.6 11.2
23:40 1026 30.3 855 25.25 -3.5 25.7 54 -11.5 11.3
23:45 1026 30.3 855 25.25 -3.5 25.7 53 -11.7 11
23:50 1026 30.3 855 25.25 -3.5 25.6 53 -11.8 10.8
23:55 1026 30.3 855 25.25 -3.5 25.7 52 -11.9 10.6
24:00 1026 30.3 855 25.25 -3.4 25.8 53 -11.8 10.8